Horst, Netherlands
Current Conditions -  °F | °C
As of 8:55 PM on Saturday 25 Oct 2014 (Local Time) from EHDL Reporting Station
Overcast Overcast  
Wind Chill: 52°   Ceiling: 3700
Heat Index: 52°   Visibility: 6mi
Dew Point: 48°   Wind: 6mph
Humidity: 88%   Direction: 210°SSW
Pressure: 30.12"   Gusts: NA
Location:  52.31°N, 5.58°E
Report Text: EHDL 251855Z AUTO 21005KT 9999 OVC037 11/09 Q1020 BLU
Loading
Personal Weather Stations






























Interactive Weather Map
Tropical Storm Tracking
New forecast layout! Learn more

10-Day Weather Forecast

Advertisements
Track Severe Weather on mobile